sensor_id;sensor_type;location;lat;lon;timestamp;pressure;altitude;pressure_sealevel;temperature;humidity
62600;BME280;48671;48.922;2.346;2023-07-29T00:02:10;100719.56;;;24.24;64.58
62600;BME280;48671;48.922;2.346;2023-07-29T00:04:35;100714.84;;;24.18;64.32
62600;BME280;48671;48.922;2.346;2023-07-29T00:07:00;100703.66;;;24.15;64.38
62600;BME280;48671;48.922;2.346;2023-07-29T00:09:26;100701.84;;;24.15;64.20
62600;BME280;48671;48.922;2.346;2023-07-29T00:11:51;100705.03;;;24.19;64.25
62600;BME280;48671;48.922;2.346;2023-07-29T00:14:16;100688.72;;;24.14;64.04
62600;BME280;48671;48.922;2.346;2023-07-29T00:16:42;100698.88;;;24.18;64.21
62600;BME280;48671;48.922;2.346;2023-07-29T00:19:08;100687.56;;;24.16;64.41
62600;BME280;48671;48.922;2.346;2023-07-29T00:21:33;100689.38;;;24.16;64.05
62600;BME280;48671;48.922;2.346;2023-07-29T00:23:58;100680.03;;;24.12;63.88
62600;BME280;48671;48.922;2.346;2023-07-29T00:26:26;100683.34;;;24.23;64.57
62600;BME280;48671;48.922;2.346;2023-07-29T00:28:54;100683.47;;;24.22;64.52
62600;BME280;48671;48.922;2.346;2023-07-29T00:31:19;100674.97;;;24.18;64.21
62600;BME280;48671;48.922;2.346;2023-07-29T00:33:44;100673.38;;;24.25;64.15
62600;BME280;48671;48.922;2.346;2023-07-29T00:36:10;100674.38;;;24.24;63.72
62600;BME280;48671;48.922;2.346;2023-07-29T00:38:35;100668.34;;;24.22;64.13
62600;BME280;48671;48.922;2.346;2023-07-29T00:41:02;100679.00;;;24.22;63.40
62600;BME280;48671;48.922;2.346;2023-07-29T00:43:28;100683.47;;;24.22;63.93
62600;BME280;48671;48.922;2.346;2023-07-29T00:45:53;100691.06;;;24.17;64.04
62600;BME280;48671;48.922;2.346;2023-07-29T00:48:19;100690.44;;;24.05;62.83
62600;BME280;48671;48.922;2.346;2023-07-29T00:50:45;100686.53;;;23.99;63.34
62600;BME280;48671;48.922;2.346;2023-07-29T00:53:10;100678.59;;;23.90;63.78
62600;BME280;48671;48.922;2.346;2023-07-29T00:55:36;100691.16;;;23.97;63.00
62600;BME280;48671;48.922;2.346;2023-07-29T00:58:03;100692.59;;;23.92;62.93
62600;BME280;48671;48.922;2.346;2023-07-29T01:00:28;100693.56;;;23.91;63.11
62600;BME280;48671;48.922;2.346;2023-07-29T01:02:53;100685.59;;;23.91;62.41
62600;BME280;48671;48.922;2.346;2023-07-29T01:05:20;100691.22;;;23.88;62.32
62600;BME280;48671;48.922;2.346;2023-07-29T01:07:51;100698.63;;;23.84;62.04
62600;BME280;48671;48.922;2.346;2023-07-29T01:16:01;100701.34;;;23.74;61.75
62600;BME280;48671;48.922;2.346;2023-07-29T01:18:35;100689.28;;;23.70;61.72
62600;BME280;48671;48.922;2.346;2023-07-29T01:21:07;100659.78;;;23.64;61.86
62600;BME280;48671;48.922;2.346;2023-07-29T01:23:34;100672.53;;;23.60;62.17
62600;BME280;48671;48.922;2.346;2023-07-29T01:26:00;100680.53;;;23.50;61.89
62600;BME280;48671;48.922;2.346;2023-07-29T01:28:26;100687.53;;;23.51;62.25
62600;BME280;48671;48.922;2.346;2023-07-29T01:30:58;100681.25;;;23.43;62.15
62600;BME280;48671;48.922;2.346;2023-07-29T01:33:32;100685.03;;;23.30;61.53
62600;BME280;48671;48.922;2.346;2023-07-29T01:36:14;100681.41;;;23.31;62.21
62600;BME280;48671;48.922;2.346;2023-07-29T01:38:41;100674.69;;;23.27;62.27
62600;BME280;48671;48.922;2.346;2023-07-29T01:41:09;100670.38;;;23.26;61.90
62600;BME280;48671;48.922;2.346;2023-07-29T01:43:36;100678.19;;;23.28;62.09
62600;BME280;48671;48.922;2.346;2023-07-29T01:46:08;100672.50;;;23.23;62.05
62600;BME280;48671;48.922;2.346;2023-07-29T01:48:34;100676.97;;;23.22;61.93
62600;BME280;48671;48.922;2.346;2023-07-29T01:50:59;100670.69;;;23.13;61.84
62600;BME280;48671;48.922;2.346;2023-07-29T01:53:24;100679.06;;;23.19;62.40
62600;BME280;48671;48.922;2.346;2023-07-29T01:55:50;100667.19;;;23.13;62.66
62600;BME280;48671;48.922;2.346;2023-07-29T01:58:15;100682.41;;;23.11;62.27
62600;BME280;48671;48.922;2.346;2023-07-29T02:00:40;100670.25;;;22.99;62.52
62600;BME280;48671;48.922;2.346;2023-07-29T02:03:06;100678.09;;;23.00;63.00
62600;BME280;48671;48.922;2.346;2023-07-29T02:05:31;100677.34;;;22.88;62.31
62600;BME280;48671;48.922;2.346;2023-07-29T02:07:56;100692.16;;;22.91;62.49
62600;BME280;48671;48.922;2.346;2023-07-29T02:10:21;100706.41;;;22.90;62.83
62600;BME280;48671;48.922;2.346;2023-07-29T02:12:47;100709.75;;;22.92;62.97
62600;BME280;48671;48.922;2.346;2023-07-29T02:15:12;100709.47;;;22.85;62.58
62600;BME280;48671;48.922;2.346;2023-07-29T02:17:38;100698.75;;;22.87;62.57
62600;BME280;48671;48.922;2.346;2023-07-29T02:20:04;100676.13;;;22.83;62.95
62600;BME280;48671;48.922;2.346;2023-07-29T02:22:29;100686.47;;;22.76;62.40
62600;BME280;48671;48.922;2.346;2023-07-29T02:24:55;100693.69;;;22.74;63.03
62600;BME280;48671;48.922;2.346;2023-07-29T02:27:20;100673.88;;;22.68;62.94
62600;BME280;48671;48.922;2.346;2023-07-29T02:29:46;100663.81;;;22.72;62.77
62600;BME280;48671;48.922;2.346;2023-07-29T02:32:11;100659.22;;;22.64;62.71
62600;BME280;48671;48.922;2.346;2023-07-29T02:34:36;100669.97;;;22.73;63.03
62600;BME280;48671;48.922;2.346;2023-07-29T02:37:02;100689.09;;;22.76;62.35
62600;BME280;48671;48.922;2.346;2023-07-29T02:39:27;100678.63;;;22.65;62.07
62600;BME280;48671;48.922;2.346;2023-07-29T02:41:52;100690.50;;;22.71;62.45
62600;BME280;48671;48.922;2.346;2023-07-29T02:44:18;100694.41;;;22.76;62.29
62600;BME280;48671;48.922;2.346;2023-07-29T02:46:44;100696.34;;;22.74;62.58
62600;BME280;48671;48.922;2.346;2023-07-29T02:49:10;100691.03;;;22.64;62.37
62600;BME280;48671;48.922;2.346;2023-07-29T02:51:35;100688.66;;;22.61;62.39
62600;BME280;48671;48.922;2.346;2023-07-29T02:54:00;100690.91;;;22.56;61.98
62600;BME280;48671;48.922;2.346;2023-07-29T02:56:25;100692.56;;;22.48;62.96
62600;BME280;48671;48.922;2.346;2023-07-29T02:58:51;100690.44;;;22.41;63.09
62600;BME280;48671;48.922;2.346;2023-07-29T03:01:17;100698.84;;;22.47;63.35
62600;BME280;48671;48.922;2.346;2023-07-29T03:03:42;100701.50;;;22.47;63.13
62600;BME280;48671;48.922;2.346;2023-07-29T03:06:09;100698.41;;;22.51;62.72
62600;BME280;48671;48.922;2.346;2023-07-29T03:08:35;100705.94;;;22.46;62.50
62600;BME280;48671;48.922;2.346;2023-07-29T03:11:09;100710.66;;;22.42;63.03
62600;BME280;48671;48.922;2.346;2023-07-29T03:13:36;100713.06;;;22.46;63.23
62600;BME280;48671;48.922;2.346;2023-07-29T03:16:15;100716.41;;;22.48;62.58
62600;BME280;48671;48.922;2.346;2023-07-29T03:18:42;100719.34;;;22.44;62.84
62600;BME280;48671;48.922;2.346;2023-07-29T03:21:08;100722.09;;;22.43;62.68
62600;BME280;48671;48.922;2.346;2023-07-29T03:23:34;100722.09;;;22.43;62.67
62600;BME280;48671;48.922;2.346;2023-07-29T03:26:01;100728.13;;;22.45;62.47
62600;BME280;48671;48.922;2.346;2023-07-29T03:28:33;100735.25;;;22.44;63.06
62600;BME280;48671;48.922;2.346;2023-07-29T03:30:58;100727.28;;;22.44;62.76
62600;BME280;48671;48.922;2.346;2023-07-29T03:33:25;100730.78;;;22.45;62.72
62600;BME280;48671;48.922;2.346;2023-07-29T03:35:51;100721.25;;;22.33;63.06
62600;BME280;48671;48.922;2.346;2023-07-29T03:38:16;100729.34;;;22.31;62.68
62600;BME280;48671;48.922;2.346;2023-07-29T03:40:42;100737.56;;;22.28;63.41
62600;BME280;48671;48.922;2.346;2023-07-29T03:43:07;100737.84;;;22.25;63.41
62600;BME280;48671;48.922;2.346;2023-07-29T03:45:34;100741.63;;;22.32;63.44
62600;BME280;48671;48.922;2.346;2023-07-29T03:48:00;100741.88;;;22.29;63.42
62600;BME280;48671;48.922;2.346;2023-07-29T03:50:26;100728.06;;;22.26;63.52
62600;BME280;48671;48.922;2.346;2023-07-29T03:52:51;100731.69;;;22.25;63.61
62600;BME280;48671;48.922;2.346;2023-07-29T03:55:17;100720.53;;;22.21;63.52
62600;BME280;48671;48.922;2.346;2023-07-29T03:57:42;100731.56;;;22.26;63.46
62600;BME280;48671;48.922;2.346;2023-07-29T04:00:08;100737.38;;;22.20;63.03
62600;BME280;48671;48.922;2.346;2023-07-29T04:02:36;100731.75;;;22.13;63.56
62600;BME280;48671;48.922;2.346;2023-07-29T04:05:03;100722.09;;;22.03;63.97
62600;BME280;48671;48.922;2.346;2023-07-29T04:07:29;100734.25;;;22.05;63.66
62600;BME280;48671;48.922;2.346;2023-07-29T04:09:54;100727.91;;;21.96;64.02
62600;BME280;48671;48.922;2.346;2023-07-29T04:12:20;100732.22;;;21.88;64.32
62600;BME280;48671;48.922;2.346;2023-07-29T04:14:46;100747.13;;;21.89;64.05
62600;BME280;48671;48.922;2.346;2023-07-29T04:17:12;100735.25;;;21.83;64.18
62600;BME280;48671;48.922;2.346;2023-07-29T04:19:37;100729.25;;;21.81;64.53
62600;BME280;48671;48.922;2.346;2023-07-29T04:22:03;100730.94;;;21.82;64.69
62600;BME280;48671;48.922;2.346;2023-07-29T04:24:28;100741.94;;;21.87;64.37
62600;BME280;48671;48.922;2.346;2023-07-29T04:26:53;100739.63;;;21.94;64.71
62600;BME280;48671;48.922;2.346;2023-07-29T04:29:19;100746.47;;;21.96;64.60
62600;BME280;48671;48.922;2.346;2023-07-29T04:31:44;100752.59;;;21.97;64.24
62600;BME280;48671;48.922;2.346;2023-07-29T04:34:09;100760.94;;;21.92;64.27
62600;BME280;48671;48.922;2.346;2023-07-29T04:36:35;100762.19;;;21.88;64.13
62600;BME280;48671;48.922;2.346;2023-07-29T04:39:00;100757.72;;;21.89;64.33
62600;BME280;48671;48.922;2.346;2023-07-29T04:41:25;100773.09;;;21.95;64.24
62600;BME280;48671;48.922;2.346;2023-07-29T04:43:51;100766.97;;;21.94;64.25
62600;BME280;48671;48.922;2.346;2023-07-29T04:46:17;100763.91;;;21.99;64.41
62600;BME280;48671;48.922;2.346;2023-07-29T04:48:42;100765.47;;;22.02;64.41
62600;BME280;48671;48.922;2.346;2023-07-29T04:51:08;100766.75;;;22.07;63.79
62600;BME280;48671;48.922;2.346;2023-07-29T04:53:33;100753.72;;;21.94;64.25
62600;BME280;48671;48.922;2.346;2023-07-29T04:56:02;100758.16;;;21.94;64.03
62600;BME280;48671;48.922;2.346;2023-07-29T04:58:28;100748.94;;;21.88;63.87
62600;BME280;48671;48.922;2.346;2023-07-29T05:00:55;100763.59;;;21.92;64.76
62600;BME280;48671;48.922;2.346;2023-07-29T05:03:20;100755.91;;;21.89;64.27
62600;BME280;48671;48.922;2.346;2023-07-29T05:05:45;100765.00;;;21.96;64.45
62600;BME280;48671;48.922;2.346;2023-07-29T05:08:11;100744.59;;;21.87;64.07
62600;BME280;48671;48.922;2.346;2023-07-29T05:10:36;100758.63;;;21.99;64.21
62600;BME280;48671;48.922;2.346;2023-07-29T05:13:01;100767.84;;;22.05;63.17
62600;BME280;48671;48.922;2.346;2023-07-29T05:15:27;100767.34;;;22.11;63.93
62600;BME280;48671;48.922;2.346;2023-07-29T05:17:52;100770.16;;;22.19;63.02
62600;BME280;48671;48.922;2.346;2023-07-29T05:20:17;100759.31;;;22.22;63.23
62600;BME280;48671;48.922;2.346;2023-07-29T05:22:43;100765.72;;;22.19;63.09
62600;BME280;48671;48.922;2.346;2023-07-29T05:25:08;100768.81;;;22.25;63.29
62600;BME280;48671;48.922;2.346;2023-07-29T05:27:33;100758.06;;;22.26;62.64
62600;BME280;48671;48.922;2.346;2023-07-29T05:29:59;100763.09;;;22.29;62.45
62600;BME280;48671;48.922;2.346;2023-07-29T05:32:24;100766.03;;;22.36;62.14
62600;BME280;48671;48.922;2.346;2023-07-29T05:34:49;100763.09;;;22.29;62.18
62600;BME280;48671;48.922;2.346;2023-07-29T05:37:14;100770.41;;;22.37;62.47
62600;BME280;48671;48.922;2.346;2023-07-29T05:39:40;100768.97;;;22.33;62.07
62600;BME280;48671;48.922;2.346;2023-07-29T05:42:05;100773.84;;;22.28;62.67
62600;BME280;48671;48.922;2.346;2023-07-29T05:44:31;100771.31;;;22.26;62.49
62600;BME280;48671;48.922;2.346;2023-07-29T05:46:57;100766.56;;;22.30;62.32
62600;BME280;48671;48.922;2.346;2023-07-29T05:49:22;100781.66;;;22.29;62.12
62600;BME280;48671;48.922;2.346;2023-07-29T05:51:48;100758.78;;;22.28;62.33
62600;BME280;48671;48.922;2.346;2023-07-29T05:54:13;100766.34;;;22.42;62.06
62600;BME280;48671;48.922;2.346;2023-07-29T05:56:39;100761.50;;;22.48;62.01
62600;BME280;48671;48.922;2.346;2023-07-29T05:59:04;100764.13;;;22.48;61.61
62600;BME280;48671;48.922;2.346;2023-07-29T06:01:29;100761.50;;;22.48;61.42
62600;BME280;48671;48.922;2.346;2023-07-29T06:03:54;100769.19;;;22.51;61.39
62600;BME280;48671;48.922;2.346;2023-07-29T06:06:20;100774.06;;;22.55;61.91
62600;BME280;48671;48.922;2.346;2023-07-29T06:08:45;100758.72;;;22.59;61.25
62600;BME280;48671;48.922;2.346;2023-07-29T06:11:10;100757.06;;;22.58;60.99
62600;BME280;48671;48.922;2.346;2023-07-29T06:13:36;100763.34;;;22.66;61.61
62600;BME280;48671;48.922;2.346;2023-07-29T06:16:01;100749.38;;;22.64;61.37
62600;BME280;48671;48.922;2.346;2023-07-29T06:18:27;100756.81;;;22.80;61.34
62600;BME280;48671;48.922;2.346;2023-07-29T06:20:52;100767.56;;;22.88;60.95
62600;BME280;48671;48.922;2.346;2023-07-29T06:23:17;100769.53;;;22.86;60.73
62600;BME280;48671;48.922;2.346;2023-07-29T06:25:43;100781.25;;;22.84;60.79
62600;BME280;48671;48.922;2.346;2023-07-29T06:28:11;100775.94;;;22.84;61.07
62600;BME280;48671;48.922;2.346;2023-07-29T06:30:36;100782.66;;;22.88;60.47
62600;BME280;48671;48.922;2.346;2023-07-29T06:33:02;100795.78;;;22.89;59.57
62600;BME280;48671;48.922;2.346;2023-07-29T06:35:28;100801.41;;;22.96;59.92
62600;BME280;48671;48.922;2.346;2023-07-29T06:37:54;100792.75;;;22.94;59.48
62600;BME280;48671;48.922;2.346;2023-07-29T06:40:19;100800.44;;;22.97;59.94
62600;BME280;48671;48.922;2.346;2023-07-29T06:42:45;100794.97;;;22.99;59.38
62600;BME280;48671;48.922;2.346;2023-07-29T06:45:10;100798.78;;;23.06;59.13
62600;BME280;48671;48.922;2.346;2023-07-29T06:47:36;100794.59;;;23.13;59.05
62600;BME280;48671;48.922;2.346;2023-07-29T06:50:02;100805.31;;;23.11;59.17
62600;BME280;48671;48.922;2.346;2023-07-29T06:52:29;100798.63;;;23.17;59.08
62600;BME280;48671;48.922;2.346;2023-07-29T06:54:54;100800.31;;;23.18;59.53
62600;BME280;48671;48.922;2.346;2023-07-29T06:57:19;100808.44;;;23.26;58.94
62600;BME280;48671;48.922;2.346;2023-07-29T06:59:45;100808.97;;;23.30;59.08
62600;BME280;48671;48.922;2.346;2023-07-29T07:02:10;100811.47;;;23.41;58.64
62600;BME280;48671;48.922;2.346;2023-07-29T07:04:35;100812.91;;;23.45;58.64
62600;BME280;48671;48.922;2.346;2023-07-29T07:07:01;100810.38;;;23.44;57.63
62600;BME280;48671;48.922;2.346;2023-07-29T07:09:26;100823.66;;;23.53;57.94
62600;BME280;48671;48.922;2.346;2023-07-29T07:11:51;100821.00;;;23.53;57.76
62600;BME280;48671;48.922;2.346;2023-07-29T07:14:19;100831.88;;;23.60;57.84
62600;BME280;48671;48.922;2.346;2023-07-29T07:16:45;100835.81;;;23.56;58.20
62600;BME280;48671;48.922;2.346;2023-07-29T07:19:10;100835.25;;;23.52;58.20
62600;BME280;48671;48.922;2.346;2023-07-29T07:21:36;100836.38;;;23.50;57.32
62600;BME280;48671;48.922;2.346;2023-07-29T07:24:01;100837.47;;;23.37;58.03
62600;BME280;48671;48.922;2.346;2023-07-29T07:26:26;100843.66;;;23.38;57.98
62600;BME280;48671;48.922;2.346;2023-07-29T07:28:52;100850.06;;;23.35;58.48
62600;BME280;48671;48.922;2.346;2023-07-29T07:31:17;100845.03;;;23.52;58.00
62600;BME280;48671;48.922;2.346;2023-07-29T07:33:42;100849.25;;;23.54;58.08
62600;BME280;48671;48.922;2.346;2023-07-29T07:36:08;100842.50;;;23.50;57.58
62600;BME280;48671;48.922;2.346;2023-07-29T07:38:33;100849.81;;;23.48;57.25
62600;BME280;48671;48.922;2.346;2023-07-29T07:40:58;100842.13;;;23.45;57.26
62600;BME280;48671;48.922;2.346;2023-07-29T07:43:24;100841.28;;;23.45;57.87
62600;BME280;48671;48.922;2.346;2023-07-29T07:45:50;100846.97;;;23.30;57.34
62600;BME280;48671;48.922;2.346;2023-07-29T07:48:15;100841.25;;;23.06;58.70
62600;BME280;48671;48.922;2.346;2023-07-29T07:50:42;100849.50;;;23.12;58.72
62600;BME280;48671;48.922;2.346;2023-07-29T07:53:07;100842.66;;;23.20;58.46
62600;BME280;48671;48.922;2.346;2023-07-29T07:55:33;100838.88;;;23.22;58.50
62600;BME280;48671;48.922;2.346;2023-07-29T07:58:01;100832.44;;;23.25;58.78
62600;BME280;48671;48.922;2.346;2023-07-29T08:00:26;100844.47;;;23.29;58.27
62600;BME280;48671;48.922;2.346;2023-07-29T08:02:52;100834.53;;;23.41;58.38
62600;BME280;48671;48.922;2.346;2023-07-29T08:05:17;100847.97;;;23.49;58.15
62600;BME280;48671;48.922;2.346;2023-07-29T08:07:43;100844.78;;;23.55;57.88
62600;BME280;48671;48.922;2.346;2023-07-29T08:10:08;100838.19;;;23.59;57.50
62600;BME280;48671;48.922;2.346;2023-07-29T08:12:34;100842.38;;;23.62;57.85
62600;BME280;48671;48.922;2.346;2023-07-29T08:14:59;100846.72;;;23.63;56.88
62600;BME280;48671;48.922;2.346;2023-07-29T08:17:24;100847.03;;;23.69;57.66
62600;BME280;48671;48.922;2.346;2023-07-29T08:19:50;100843.25;;;23.72;57.32
62600;BME280;48671;48.922;2.346;2023-07-29T08:22:15;100842.41;;;23.71;56.92
62600;BME280;48671;48.922;2.346;2023-07-29T08:24:42;100847.16;;;23.77;57.76
62600;BME280;48671;48.922;2.346;2023-07-29T08:27:08;100841.13;;;23.85;57.15
62600;BME280;48671;48.922;2.346;2023-07-29T08:29:33;100847.69;;;23.91;57.19
62600;BME280;48671;48.922;2.346;2023-07-29T08:31:58;100844.06;;;23.92;56.88
62600;BME280;48671;48.922;2.346;2023-07-29T08:34:24;100847.00;;;23.89;57.10
62600;BME280;48671;48.922;2.346;2023-07-29T08:36:49;100844.34;;;23.89;57.16
62600;BME280;48671;48.922;2.346;2023-07-29T08:39:14;100843.34;;;23.90;56.85
62600;BME280;48671;48.922;2.346;2023-07-29T08:41:54;100843.91;;;23.93;56.61
62600;BME280;48671;48.922;2.346;2023-07-29T08:44:22;100846.97;;;23.98;56.26
62600;BME280;48671;48.922;2.346;2023-07-29T08:46:51;100836.91;;;23.92;56.18
62600;BME280;48671;48.922;2.346;2023-07-29T08:49:18;100842.50;;;23.99;56.60
62600;BME280;48671;48.922;2.346;2023-07-29T08:51:46;100833.09;;;24.14;56.65
62600;BME280;48671;48.922;2.346;2023-07-29T08:54:13;100824.34;;;24.32;56.24
62600;BME280;48671;48.922;2.346;2023-07-29T08:56:40;100837.84;;;24.58;55.19
62600;BME280;48671;48.922;2.346;2023-07-29T08:59:06;100842.84;;;24.70;54.32
62600;BME280;48671;48.922;2.346;2023-07-29T09:01:32;100840.38;;;24.59;53.94
62600;BME280;48671;48.922;2.346;2023-07-29T09:03:57;100835.47;;;24.55;54.30
62600;BME280;48671;48.922;2.346;2023-07-29T09:06:23;100832.25;;;24.61;54.66
62600;BME280;48671;48.922;2.346;2023-07-29T09:08:51;100840.00;;;24.72;53.46
62600;BME280;48671;48.922;2.346;2023-07-29T09:11:18;100830.91;;;24.74;53.32
62600;BME280;48671;48.922;2.346;2023-07-29T09:13:44;100819.97;;;24.77;53.16
62600;BME280;48671;48.922;2.346;2023-07-29T09:16:09;100821.38;;;24.99;52.80
62600;BME280;48671;48.922;2.346;2023-07-29T09:18:35;100812.06;;;25.13;52.42
62600;BME280;48671;48.922;2.346;2023-07-29T09:21:01;100806.19;;;25.28;51.63
62600;BME280;48671;48.922;2.346;2023-07-29T09:23:27;100819.19;;;25.49;51.93
62600;BME280;48671;48.922;2.346;2023-07-29T09:26:00;100814.09;;;25.55;51.32
62600;BME280;48671;48.922;2.346;2023-07-29T09:28:26;100819.25;;;25.57;51.87
62600;BME280;48671;48.922;2.346;2023-07-29T09:30:53;100815.41;;;25.51;51.65
62600;BME280;48671;48.922;2.346;2023-07-29T09:33:18;100804.13;;;25.39;51.73
62600;BME280;48671;48.922;2.346;2023-07-29T09:35:45;100819.56;;;25.54;52.37
62600;BME280;48671;48.922;2.346;2023-07-29T09:38:14;100822.09;;;25.55;50.96
62600;BME280;48671;48.922;2.346;2023-07-29T09:40:41;100819.81;;;25.42;51.23
62600;BME280;48671;48.922;2.346;2023-07-29T09:43:08;100812.66;;;25.43;51.45
62600;BME280;48671;48.922;2.346;2023-07-29T09:45:35;100807.03;;;25.46;51.35
62600;BME280;48671;48.922;2.346;2023-07-29T09:48:01;100813.34;;;25.45;52.21
62600;BME280;48671;48.922;2.346;2023-07-29T09:50:28;100814.84;;;25.65;51.35
62600;BME280;48671;48.922;2.346;2023-07-29T09:52:55;100818.03;;;25.87;51.03
62600;BME280;48671;48.922;2.346;2023-07-29T09:55:22;100830.28;;;26.06;51.89
62600;BME280;48671;48.922;2.346;2023-07-29T09:57:53;100807.19;;;26.14;49.97
62600;BME280;48671;48.922;2.346;2023-07-29T10:00:18;100804.22;;;26.18;51.21
62600;BME280;48671;48.922;2.346;2023-07-29T10:02:44;100810.06;;;26.21;51.11
62600;BME280;48671;48.922;2.346;2023-07-29T10:05:10;100796.22;;;26.26;50.99
62600;BME280;48671;48.922;2.346;2023-07-29T10:07:39;100814.16;;;26.42;50.68
62600;BME280;48671;48.922;2.346;2023-07-29T10:10:06;100799.47;;;26.37;49.86
62600;BME280;48671;48.922;2.346;2023-07-29T10:12:33;100805.41;;;26.49;50.17
62600;BME280;48671;48.922;2.346;2023-07-29T10:15:00;100810.41;;;26.52;49.41
62600;BME280;48671;48.922;2.346;2023-07-29T10:17:26;100810.34;;;26.44;49.48
62600;BME280;48671;48.922;2.346;2023-07-29T10:19:52;100802.00;;;26.47;49.69
62600;BME280;48671;48.922;2.346;2023-07-29T10:22:20;100808.75;;;26.59;48.88
62600;BME280;48671;48.922;2.346;2023-07-29T10:24:48;100808.09;;;26.57;49.01
62600;BME280;48671;48.922;2.346;2023-07-29T10:27:17;100809.41;;;26.53;49.15
62600;BME280;48671;48.922;2.346;2023-07-29T10:29:43;100808.75;;;26.59;49.57
62600;BME280;48671;48.922;2.346;2023-07-29T10:32:11;100803.75;;;26.65;49.79
62600;BME280;48671;48.922;2.346;2023-07-29T10:34:36;100808.75;;;26.59;50.19
62600;BME280;48671;48.922;2.346;2023-07-29T10:37:03;100822.97;;;26.42;50.55
62600;BME280;48671;48.922;2.346;2023-07-29T10:39:40;100811.78;;;26.30;50.71
62600;BME280;48671;48.922;2.346;2023-07-29T10:42:06;100812.53;;;26.14;50.11
62600;BME280;48671;48.922;2.346;2023-07-29T10:49:44;100807.47;;;26.03;50.72
62600;BME280;48671;48.922;2.346;2023-07-29T10:52:14;100798.81;;;26.09;51.47
62600;BME280;48671;48.922;2.346;2023-07-29T10:54:43;100807.50;;;26.11;50.86
62600;BME280;48671;48.922;2.346;2023-07-29T10:57:13;100799.81;;;26.08;51.25
62600;BME280;48671;48.922;2.346;2023-07-29T10:59:39;100794.88;;;26.13;51.20
62600;BME280;48671;48.922;2.346;2023-07-29T11:02:15;100803.56;;;26.24;50.90
62600;BME280;48671;48.922;2.346;2023-07-29T11:04:50;100802.97;;;26.38;50.85
62600;BME280;48671;48.922;2.346;2023-07-29T11:12:35;100792.91;;;27.33;49.57
62600;BME280;48671;48.922;2.346;2023-07-29T11:15:15;100784.06;;;27.41;48.23
62600;BME280;48671;48.922;2.346;2023-07-29T11:17:43;100781.22;;;27.59;48.03
62600;BME280;48671;48.922;2.346;2023-07-29T11:20:10;100787.88;;;27.63;48.08
62600;BME280;48671;48.922;2.346;2023-07-29T11:22:36;100785.06;;;27.64;48.28
62600;BME280;48671;48.922;2.346;2023-07-29T11:25:02;100781.84;;;27.69;47.93
62600;BME280;48671;48.922;2.346;2023-07-29T11:27:28;100793.41;;;27.61;47.15
62600;BME280;48671;48.922;2.346;2023-07-29T11:30:00;100787.06;;;27.46;47.51
62600;BME280;48671;48.922;2.346;2023-07-29T11:32:27;100781.41;;;27.41;47.83
62600;BME280;48671;48.922;2.346;2023-07-29T11:34:52;100781.41;;;27.41;47.83
62600;BME280;48671;48.922;2.346;2023-07-29T11:37:18;100780.88;;;27.45;47.75
62600;BME280;48671;48.922;2.346;2023-07-29T11:39:45;100769.31;;;27.69;49.45
62600;BME280;48671;48.922;2.346;2023-07-29T11:42:11;100781.38;;;27.73;46.80
62600;BME280;48671;48.922;2.346;2023-07-29T11:44:37;100781.22;;;27.50;47.79
62600;BME280;48671;48.922;2.346;2023-07-29T11:47:06;100770.53;;;27.50;48.16
62600;BME280;48671;48.922;2.346;2023-07-29T11:49:33;100770.84;;;27.55;48.05
62600;BME280;48671;48.922;2.346;2023-07-29T11:51:58;100766.00;;;27.59;48.27
62600;BME280;48671;48.922;2.346;2023-07-29T11:54:24;100760.81;;;27.82;48.31
62600;BME280;48671;48.922;2.346;2023-07-29T11:56:50;100760.41;;;28.10;48.06
62600;BME280;48671;48.922;2.346;2023-07-29T11:59:15;100754.13;;;28.34;46.45
62600;BME280;48671;48.922;2.346;2023-07-29T12:01:41;100753.50;;;28.23;45.49
62600;BME280;48671;48.922;2.346;2023-07-29T12:04:06;100751.44;;;28.34;46.56
62600;BME280;48671;48.922;2.346;2023-07-29T12:06:32;100761.41;;;28.56;47.03
62600;BME280;48671;48.922;2.346;2023-07-29T12:08:58;100751.78;;;28.70;45.55
62600;BME280;48671;48.922;2.346;2023-07-29T12:11:23;100761.69;;;28.92;44.92
62600;BME280;48671;48.922;2.346;2023-07-29T12:13:48;100746.91;;;29.05;45.56
62600;BME280;48671;48.922;2.346;2023-07-29T12:16:17;100742.91;;;29.01;44.39
62600;BME280;48671;48.922;2.346;2023-07-29T12:18:45;100751.25;;;28.75;45.40
62600;BME280;48671;48.922;2.346;2023-07-29T12:21:14;100755.50;;;28.61;44.57
62600;BME280;48671;48.922;2.346;2023-07-29T12:23:39;100761.47;;;28.40;45.92
62600;BME280;48671;48.922;2.346;2023-07-29T12:26:04;100749.25;;;28.45;47.25
62600;BME280;48671;48.922;2.346;2023-07-29T12:28:30;100751.38;;;28.58;45.62
62600;BME280;48671;48.922;2.346;2023-07-29T12:30:56;100740.38;;;28.76;46.59
62600;BME280;48671;48.922;2.346;2023-07-29T12:33:33;100745.44;;;28.94;44.53
62600;BME280;48671;48.922;2.346;2023-07-29T12:35:58;100738.50;;;29.00;44.11
62600;BME280;48671;48.922;2.346;2023-07-29T12:38:28;100743.97;;;29.14;43.36
62600;BME280;48671;48.922;2.346;2023-07-29T12:40:54;100733.75;;;29.33;44.20
62600;BME280;48671;48.922;2.346;2023-07-29T12:43:19;100739.97;;;29.48;44.36
62600;BME280;48671;48.922;2.346;2023-07-29T12:45:45;100738.28;;;29.32;44.25
62600;BME280;48671;48.922;2.346;2023-07-29T12:48:11;100728.16;;;29.05;45.19
62600;BME280;48671;48.922;2.346;2023-07-29T12:50:37;100738.25;;;28.94;45.76
62600;BME280;48671;48.922;2.346;2023-07-29T12:53:04;100733.13;;;28.85;45.55
62600;BME280;48671;48.922;2.346;2023-07-29T12:55:30;100730.44;;;28.85;45.79
62600;BME280;48671;48.922;2.346;2023-07-29T12:57:55;100719.97;;;29.21;45.97
62600;BME280;48671;48.922;2.346;2023-07-29T13:00:21;100729.63;;;29.45;45.72
62600;BME280;48671;48.922;2.346;2023-07-29T13:02:46;100710.53;;;29.78;44.41